sensor_id;sensor_type;location;lat;lon;timestamp;temperature;humidity
33492;DHT22;20010;51.488;7.232;2022-12-18T00:01:14;-2.40;99.90
33492;DHT22;20010;51.488;7.232;2022-12-18T00:03:41;-2.40;99.90
33492;DHT22;20010;51.488;7.232;2022-12-18T00:06:09;-2.40;99.90
33492;DHT22;20010;51.488;7.232;2022-12-18T00:08:35;-2.40;99.90
33492;DHT22;20010;51.488;7.232;2022-12-18T00:11:07;-2.40;99.90
33492;DHT22;20010;51.488;7.232;2022-12-18T00:13:35;-2.40;99.90
33492;DHT22;20010;51.488;7.232;2022-12-18T00:16:05;-2.40;99.90
33492;DHT22;20010;51.488;7.232;2022-12-18T00:18:32;-2.50;99.90
33492;DHT22;20010;51.488;7.232;2022-12-18T00:21:01;-2.50;99.90
33492;DHT22;20010;51.488;7.232;2022-12-18T00:23:28;-2.50;99.90
33492;DHT22;20010;51.488;7.232;2022-12-18T00:25:59;-2.50;99.90
33492;DHT22;20010;51.488;7.232;2022-12-18T00:28:26;-2.50;99.90
33492;DHT22;20010;51.488;7.232;2022-12-18T00:31:04;-2.50;99.90
33492;DHT22;20010;51.488;7.232;2022-12-18T00:33:31;-2.40;99.90
33492;DHT22;20010;51.488;7.232;2022-12-18T00:38:33;-2.30;99.90
33492;DHT22;20010;51.488;7.232;2022-12-18T00:41:00;-2.30;99.90
33492;DHT22;20010;51.488;7.232;2022-12-18T00:43:27;-2.30;99.90
33492;DHT22;20010;51.488;7.232;2022-12-18T00:45:54;-2.30;99.90
33492;DHT22;20010;51.488;7.232;2022-12-18T00:48:21;-2.30;99.90
33492;DHT22;20010;51.488;7.232;2022-12-18T00:50:49;-2.30;99.90
33492;DHT22;20010;51.488;7.232;2022-12-18T00:53:16;-2.20;99.90
33492;DHT22;20010;51.488;7.232;2022-12-18T00:55:44;-2.30;99.90
33492;DHT22;20010;51.488;7.232;2022-12-18T00:58:13;-2.20;99.90
33492;DHT22;20010;51.488;7.232;2022-12-18T01:00:40;-2.30;99.90
33492;DHT22;20010;51.488;7.232;2022-12-18T01:03:07;-2.30;99.90
33492;DHT22;20010;51.488;7.232;2022-12-18T01:05:38;-2.20;99.90
33492;DHT22;20010;51.488;7.232;2022-12-18T01:08:05;-2.20;99.90
33492;DHT22;20010;51.488;7.232;2022-12-18T01:10:31;-2.10;99.90
33492;DHT22;20010;51.488;7.232;2022-12-18T01:12:58;-2.20;99.90
33492;DHT22;20010;51.488;7.232;2022-12-18T01:15:25;-2.10;99.90
33492;DHT22;20010;51.488;7.232;2022-12-18T01:17:52;-2.10;99.90
33492;DHT22;20010;51.488;7.232;2022-12-18T01:20:19;-2.10;99.90
33492;DHT22;20010;51.488;7.232;2022-12-18T01:22:46;-2.10;99.90
33492;DHT22;20010;51.488;7.232;2022-12-18T01:25:13;-2.00;99.90
33492;DHT22;20010;51.488;7.232;2022-12-18T01:27:40;-2.00;99.90
33492;DHT22;20010;51.488;7.232;2022-12-18T01:30:07;-2.10;99.90
33492;DHT22;20010;51.488;7.232;2022-12-18T01:32:34;-2.10;99.90
33492;DHT22;20010;51.488;7.232;2022-12-18T01:35:00;-2.10;99.90
33492;DHT22;20010;51.488;7.232;2022-12-18T01:37:27;-2.10;99.90
33492;DHT22;20010;51.488;7.232;2022-12-18T01:39:54;-2.20;99.90
33492;DHT22;20010;51.488;7.232;2022-12-18T01:42:21;-2.30;99.90
33492;DHT22;20010;51.488;7.232;2022-12-18T01:48:05;-2.30;99.90
33492;DHT22;20010;51.488;7.232;2022-12-18T01:50:39;-2.30;99.90
33492;DHT22;20010;51.488;7.232;2022-12-18T01:53:15;-2.30;99.90
33492;DHT22;20010;51.488;7.232;2022-12-18T01:55:48;-2.30;99.90
33492;DHT22;20010;51.488;7.232;2022-12-18T01:58:16;-2.30;99.90
33492;DHT22;20010;51.488;7.232;2022-12-18T02:00:44;-2.30;99.90
33492;DHT22;20010;51.488;7.232;2022-12-18T02:03:11;-2.30;99.90
33492;DHT22;20010;51.488;7.232;2022-12-18T02:10:57;-2.30;99.90
33492;DHT22;20010;51.488;7.232;2022-12-18T02:16:27;-2.30;99.90
33492;DHT22;20010;51.488;7.232;2022-12-18T02:19:00;-2.30;99.90
33492;DHT22;20010;51.488;7.232;2022-12-18T02:24:17;-2.40;99.90
33492;DHT22;20010;51.488;7.232;2022-12-18T02:26:52;-2.40;99.90
33492;DHT22;20010;51.488;7.232;2022-12-18T02:29:25;-2.40;99.90
33492;DHT22;20010;51.488;7.232;2022-12-18T02:31:58;-2.40;99.90
33492;DHT22;20010;51.488;7.232;2022-12-18T02:34:32;-2.40;99.90
33492;DHT22;20010;51.488;7.232;2022-12-18T02:37:03;-2.40;99.90
33492;DHT22;20010;51.488;7.232;2022-12-18T02:39:33;-2.40;99.90
33492;DHT22;20010;51.488;7.232;2022-12-18T02:42:00;-2.40;99.90
33492;DHT22;20010;51.488;7.232;2022-12-18T02:44:45;-2.40;99.90
33492;DHT22;20010;51.488;7.232;2022-12-18T02:47:14;-2.40;99.90
33492;DHT22;20010;51.488;7.232;2022-12-18T02:55:14;-2.40;99.90
33492;DHT22;20010;51.488;7.232;2022-12-18T02:57:56;-2.30;99.90
33492;DHT22;20010;51.488;7.232;2022-12-18T03:03:18;-2.30;99.90
33492;DHT22;20010;51.488;7.232;2022-12-18T03:05:59;-2.40;99.90
33492;DHT22;20010;51.488;7.232;2022-12-18T03:08:35;-2.40;99.90
33492;DHT22;20010;51.488;7.232;2022-12-18T03:11:08;-2.40;99.90
33492;DHT22;20010;51.488;7.232;2022-12-18T03:13:51;-2.40;99.90
33492;DHT22;20010;51.488;7.232;2022-12-18T03:16:27;-2.40;99.90
33492;DHT22;20010;51.488;7.232;2022-12-18T03:18:58;-2.30;99.90
33492;DHT22;20010;51.488;7.232;2022-12-18T03:21:34;-2.30;99.90
33492;DHT22;20010;51.488;7.232;2022-12-18T03:24:06;-2.30;99.90
33492;DHT22;20010;51.488;7.232;2022-12-18T03:26:35;-2.30;99.90
33492;DHT22;20010;51.488;7.232;2022-12-18T03:29:08;-2.20;99.90
33492;DHT22;20010;51.488;7.232;2022-12-18T03:31:37;-2.30;99.90
33492;DHT22;20010;51.488;7.232;2022-12-18T03:34:13;-2.20;99.90
33492;DHT22;20010;51.488;7.232;2022-12-18T03:36:42;-2.20;99.90
33492;DHT22;20010;51.488;7.232;2022-12-18T03:39:09;-2.10;99.90
33492;DHT22;20010;51.488;7.232;2022-12-18T03:41:44;-2.10;99.90
33492;DHT22;20010;51.488;7.232;2022-12-18T03:44:14;-2.20;99.90
33492;DHT22;20010;51.488;7.232;2022-12-18T03:50:21;-2.20;99.90
33492;DHT22;20010;51.488;7.232;2022-12-18T03:52:37;-2.30;99.90
33492;DHT22;20010;51.488;7.232;2022-12-18T03:55:05;-2.30;99.90
33492;DHT22;20010;51.488;7.232;2022-12-18T03:57:33;-2.40;99.90
33492;DHT22;20010;51.488;7.232;2022-12-18T04:00:06;-2.40;99.90
33492;DHT22;20010;51.488;7.232;2022-12-18T04:02:34;-2.40;99.90
33492;DHT22;20010;51.488;7.232;2022-12-18T04:05:04;-2.40;99.90
33492;DHT22;20010;51.488;7.232;2022-12-18T04:07:32;-2.50;99.90
33492;DHT22;20010;51.488;7.232;2022-12-18T04:10:01;-2.40;99.90
33492;DHT22;20010;51.488;7.232;2022-12-18T04:12:29;-2.40;99.90
33492;DHT22;20010;51.488;7.232;2022-12-18T04:14:56;-2.40;99.90
33492;DHT22;20010;51.488;7.232;2022-12-18T04:17:23;-2.40;99.90
33492;DHT22;20010;51.488;7.232;2022-12-18T04:19:50;-2.40;99.90
33492;DHT22;20010;51.488;7.232;2022-12-18T04:22:18;-2.30;99.90
33492;DHT22;20010;51.488;7.232;2022-12-18T04:24:46;-2.30;99.90
33492;DHT22;20010;51.488;7.232;2022-12-18T04:27:12;-2.10;99.90
33492;DHT22;20010;51.488;7.232;2022-12-18T04:29:39;-2.00;99.90
33492;DHT22;20010;51.488;7.232;2022-12-18T04:32:07;-1.90;99.90
33492;DHT22;20010;51.488;7.232;2022-12-18T04:34:34;-1.80;99.90
33492;DHT22;20010;51.488;7.232;2022-12-18T04:37:01;-1.80;99.90
33492;DHT22;20010;51.488;7.232;2022-12-18T04:39:27;-1.80;99.90
33492;DHT22;20010;51.488;7.232;2022-12-18T04:41:54;-1.70;99.90
33492;DHT22;20010;51.488;7.232;2022-12-18T04:44:21;-1.80;99.90
33492;DHT22;20010;51.488;7.232;2022-12-18T04:46:48;-1.70;99.90
33492;DHT22;20010;51.488;7.232;2022-12-18T04:49:15;-1.70;99.90
33492;DHT22;20010;51.488;7.232;2022-12-18T04:51:42;-1.70;99.90
33492;DHT22;20010;51.488;7.232;2022-12-18T04:54:09;-1.80;99.90
33492;DHT22;20010;51.488;7.232;2022-12-18T04:56:36;-1.80;99.90
33492;DHT22;20010;51.488;7.232;2022-12-18T04:59:03;-1.80;99.90
33492;DHT22;20010;51.488;7.232;2022-12-18T05:01:29;-1.80;99.90
33492;DHT22;20010;51.488;7.232;2022-12-18T05:04:01;-1.80;99.90
33492;DHT22;20010;51.488;7.232;2022-12-18T05:06:28;-1.80;99.90
33492;DHT22;20010;51.488;7.232;2022-12-18T05:08:55;-1.90;99.90
33492;DHT22;20010;51.488;7.232;2022-12-18T05:11:22;-1.90;99.90
33492;DHT22;20010;51.488;7.232;2022-12-18T05:13:49;-2.00;99.90
33492;DHT22;20010;51.488;7.232;2022-12-18T05:16:15;-2.00;99.90
33492;DHT22;20010;51.488;7.232;2022-12-18T05:18:42;-2.00;99.90
33492;DHT22;20010;51.488;7.232;2022-12-18T05:21:09;-2.10;99.90
33492;DHT22;20010;51.488;7.232;2022-12-18T05:23:36;-2.10;99.90
33492;DHT22;20010;51.488;7.232;2022-12-18T05:26:05;-2.10;99.90
33492;DHT22;20010;51.488;7.232;2022-12-18T05:28:34;-2.20;99.90
33492;DHT22;20010;51.488;7.232;2022-12-18T05:31:02;-2.20;99.90
33492;DHT22;20010;51.488;7.232;2022-12-18T05:33:32;-2.20;99.90
33492;DHT22;20010;51.488;7.232;2022-12-18T05:36:01;-2.20;99.90
33492;DHT22;20010;51.488;7.232;2022-12-18T05:38:30;-2.20;99.90
33492;DHT22;20010;51.488;7.232;2022-12-18T05:40:57;-2.30;99.90
33492;DHT22;20010;51.488;7.232;2022-12-18T05:43:25;-2.30;99.90
33492;DHT22;20010;51.488;7.232;2022-12-18T05:45:52;-2.30;99.90
33492;DHT22;20010;51.488;7.232;2022-12-18T05:48:20;-2.20;99.90
33492;DHT22;20010;51.488;7.232;2022-12-18T05:50:48;-2.20;99.90
33492;DHT22;20010;51.488;7.232;2022-12-18T05:53:16;-2.20;99.90
33492;DHT22;20010;51.488;7.232;2022-12-18T05:55:44;-2.20;99.90
33492;DHT22;20010;51.488;7.232;2022-12-18T05:58:12;-2.10;99.90
33492;DHT22;20010;51.488;7.232;2022-12-18T06:00:41;-2.10;99.90
33492;DHT22;20010;51.488;7.232;2022-12-18T06:03:09;-2.00;99.90
33492;DHT22;20010;51.488;7.232;2022-12-18T06:05:41;-2.00;99.90
33492;DHT22;20010;51.488;7.232;2022-12-18T06:08:08;-2.00;99.90
33492;DHT22;20010;51.488;7.232;2022-12-18T06:10:35;-2.00;99.90
33492;DHT22;20010;51.488;7.232;2022-12-18T06:13:03;-2.00;99.90
33492;DHT22;20010;51.488;7.232;2022-12-18T06:15:30;-2.00;99.90
33492;DHT22;20010;51.488;7.232;2022-12-18T06:17:57;-2.10;99.90
33492;DHT22;20010;51.488;7.232;2022-12-18T06:20:24;-2.10;99.90
33492;DHT22;20010;51.488;7.232;2022-12-18T06:22:58;-2.20;99.90
33492;DHT22;20010;51.488;7.232;2022-12-18T06:25:25;-2.30;99.90
33492;DHT22;20010;51.488;7.232;2022-12-18T06:27:52;-2.30;99.90
33492;DHT22;20010;51.488;7.232;2022-12-18T06:30:19;-2.40;99.90
33492;DHT22;20010;51.488;7.232;2022-12-18T06:32:48;-2.50;99.90
33492;DHT22;20010;51.488;7.232;2022-12-18T06:35:22;-2.50;99.90
33492;DHT22;20010;51.488;7.232;2022-12-18T06:37:49;-2.60;99.90
33492;DHT22;20010;51.488;7.232;2022-12-18T06:40:16;-2.60;99.90
33492;DHT22;20010;51.488;7.232;2022-12-18T06:42:43;-2.60;99.90
33492;DHT22;20010;51.488;7.232;2022-12-18T06:45:10;-2.60;99.90
33492;DHT22;20010;51.488;7.232;2022-12-18T06:47:37;-2.60;99.90
33492;DHT22;20010;51.488;7.232;2022-12-18T06:50:04;-2.60;99.90
33492;DHT22;20010;51.488;7.232;2022-12-18T06:52:32;-2.60;99.90
33492;DHT22;20010;51.488;7.232;2022-12-18T06:55:00;-2.70;99.90
33492;DHT22;20010;51.488;7.232;2022-12-18T06:57:26;-2.70;99.90
33492;DHT22;20010;51.488;7.232;2022-12-18T06:59:53;-2.70;99.90
33492;DHT22;20010;51.488;7.232;2022-12-18T07:02:20;-2.60;99.90
33492;DHT22;20010;51.488;7.232;2022-12-18T07:04:47;-2.60;99.90
33492;DHT22;20010;51.488;7.232;2022-12-18T07:07:17;-2.60;99.90
33492;DHT22;20010;51.488;7.232;2022-12-18T07:09:43;-2.50;99.90
33492;DHT22;20010;51.488;7.232;2022-12-18T07:12:10;-2.50;99.90
33492;DHT22;20010;51.488;7.232;2022-12-18T07:14:37;-2.40;99.90
33492;DHT22;20010;51.488;7.232;2022-12-18T07:17:04;-2.40;99.90
33492;DHT22;20010;51.488;7.232;2022-12-18T07:19:32;-2.40;99.90
33492;DHT22;20010;51.488;7.232;2022-12-18T07:21:59;-2.40;99.90
33492;DHT22;20010;51.488;7.232;2022-12-18T07:24:26;-2.40;99.90
33492;DHT22;20010;51.488;7.232;2022-12-18T07:26:52;-2.40;99.90
33492;DHT22;20010;51.488;7.232;2022-12-18T07:29:19;-2.40;99.90
33492;DHT22;20010;51.488;7.232;2022-12-18T07:31:46;-2.40;99.90
33492;DHT22;20010;51.488;7.232;2022-12-18T07:34:13;-2.40;99.90
33492;DHT22;20010;51.488;7.232;2022-12-18T07:36:41;-2.50;99.90
33492;DHT22;20010;51.488;7.232;2022-12-18T07:39:10;-2.50;99.90
33492;DHT22;20010;51.488;7.232;2022-12-18T07:41:37;-2.40;99.90
33492;DHT22;20010;51.488;7.232;2022-12-18T07:44:11;-2.40;99.90
33492;DHT22;20010;51.488;7.232;2022-12-18T07:46:38;-2.40;99.90
33492;DHT22;20010;51.488;7.232;2022-12-18T07:49:05;-2.40;99.90
33492;DHT22;20010;51.488;7.232;2022-12-18T07:51:31;-2.40;99.90
33492;DHT22;20010;51.488;7.232;2022-12-18T07:53:58;-2.30;99.90
33492;DHT22;20010;51.488;7.232;2022-12-18T07:56:25;-2.30;99.90
33492;DHT22;20010;51.488;7.232;2022-12-18T07:58:55;-2.30;99.90
33492;DHT22;20010;51.488;7.232;2022-12-18T08:01:22;-2.30;99.90
33492;DHT22;20010;51.488;7.232;2022-12-18T08:03:49;-2.30;99.90
33492;DHT22;20010;51.488;7.232;2022-12-18T08:06:17;-2.30;99.90
33492;DHT22;20010;51.488;7.232;2022-12-18T08:08:44;-2.20;99.90
33492;DHT22;20010;51.488;7.232;2022-12-18T08:11:11;-2.20;99.90
33492;DHT22;20010;51.488;7.232;2022-12-18T08:13:37;-2.20;99.90
33492;DHT22;20010;51.488;7.232;2022-12-18T08:16:06;-2.20;99.90
33492;DHT22;20010;51.488;7.232;2022-12-18T08:18:35;-2.20;99.90
33492;DHT22;20010;51.488;7.232;2022-12-18T08:21:13;-2.10;99.90
33492;DHT22;20010;51.488;7.232;2022-12-18T08:23:42;-2.00;99.90
33492;DHT22;20010;51.488;7.232;2022-12-18T08:26:12;-1.90;99.90
33492;DHT22;20010;51.488;7.232;2022-12-18T08:28:40;-1.80;99.90
33492;DHT22;20010;51.488;7.232;2022-12-18T08:31:07;-1.60;99.90
33492;DHT22;20010;51.488;7.232;2022-12-18T08:33:36;-1.50;99.90
33492;DHT22;20010;51.488;7.232;2022-12-18T08:36:05;-1.50;99.90
33492;DHT22;20010;51.488;7.232;2022-12-18T08:38:32;-1.40;99.90
33492;DHT22;20010;51.488;7.232;2022-12-18T08:41:00;-1.30;99.90
33492;DHT22;20010;51.488;7.232;2022-12-18T08:43:27;-1.30;99.90
33492;DHT22;20010;51.488;7.232;2022-12-18T08:46:16;-1.30;99.90
33492;DHT22;20010;51.488;7.232;2022-12-18T08:48:43;-1.20;99.90
33492;DHT22;20010;51.488;7.232;2022-12-18T08:51:10;-1.10;99.90
33492;DHT22;20010;51.488;7.232;2022-12-18T08:53:37;-1.10;99.90
33492;DHT22;20010;51.488;7.232;2022-12-18T08:56:05;-1.00;99.90
33492;DHT22;20010;51.488;7.232;2022-12-18T08:58:32;-1.00;99.90
33492;DHT22;20010;51.488;7.232;2022-12-18T09:01:07;-0.90;99.90
33492;DHT22;20010;51.488;7.232;2022-12-18T09:03:36;-0.90;99.90
33492;DHT22;20010;51.488;7.232;2022-12-18T09:06:04;-0.80;99.90
33492;DHT22;20010;51.488;7.232;2022-12-18T09:08:31;-0.70;99.90
33492;DHT22;20010;51.488;7.232;2022-12-18T09:10:57;-0.60;99.90
33492;DHT22;20010;51.488;7.232;2022-12-18T09:13:24;-0.40;99.90
33492;DHT22;20010;51.488;7.232;2022-12-18T09:15:53;-0.30;99.90
33492;DHT22;20010;51.488;7.232;2022-12-18T09:18:22;-0.10;99.90
33492;DHT22;20010;51.488;7.232;2022-12-18T09:20:49;0.00;99.90
33492;DHT22;20010;51.488;7.232;2022-12-18T09:23:20;0.20;99.90
33492;DHT22;20010;51.488;7.232;2022-12-18T09:25:48;0.30;99.90
33492;DHT22;20010;51.488;7.232;2022-12-18T09:28:17;0.30;99.90
33492;DHT22;20010;51.488;7.232;2022-12-18T09:30:48;0.40;99.90
33492;DHT22;20010;51.488;7.232;2022-12-18T09:33:16;0.40;99.90
33492;DHT22;20010;51.488;7.232;2022-12-18T09:35:44;0.50;99.90
33492;DHT22;20010;51.488;7.232;2022-12-18T09:38:14;0.60;99.90
33492;DHT22;20010;51.488;7.232;2022-12-18T09:40:52;0.70;99.90
33492;DHT22;20010;51.488;7.232;2022-12-18T09:43:26;0.90;99.90
33492;DHT22;20010;51.488;7.232;2022-12-18T09:46:01;1.10;99.90
33492;DHT22;20010;51.488;7.232;2022-12-18T09:48:34;1.30;99.90
33492;DHT22;20010;51.488;7.232;2022-12-18T09:51:05;1.40;99.90
33492;DHT22;20010;51.488;7.232;2022-12-18T09:53:39;1.50;99.90
33492;DHT22;20010;51.488;7.232;2022-12-18T09:56:14;1.60;99.90
33492;DHT22;20010;51.488;7.232;2022-12-18T09:58:48;1.70;99.90
33492;DHT22;20010;51.488;7.232;2022-12-18T10:01:21;1.80;99.90
33492;DHT22;20010;51.488;7.232;2022-12-18T10:03:48;1.90;99.90
33492;DHT22;20010;51.488;7.232;2022-12-18T10:09:09;1.90;99.90
33492;DHT22;20010;51.488;7.232;2022-12-18T10:14:23;2.00;99.90
33492;DHT22;20010;51.488;7.232;2022-12-18T10:19:39;2.10;99.90
33492;DHT22;20010;51.488;7.232;2022-12-18T10:27:58;2.20;99.90
33492;DHT22;20010;51.488;7.232;2022-12-18T10:30:27;2.30;99.90
33492;DHT22;20010;51.488;7.232;2022-12-18T10:32:54;2.30;99.90
33492;DHT22;20010;51.488;7.232;2022-12-18T10:35:24;2.40;99.90
33492;DHT22;20010;51.488;7.232;2022-12-18T10:40:29;2.50;99.90
33492;DHT22;20010;51.488;7.232;2022-12-18T10:51:09;2.60;99.90
33492;DHT22;20010;51.488;7.232;2022-12-18T10:53:41;2.70;99.90
33492;DHT22;20010;51.488;7.232;2022-12-18T10:56:09;2.70;99.90
33492;DHT22;20010;51.488;7.232;2022-12-18T10:58:38;2.80;99.90
33492;DHT22;20010;51.488;7.232;2022-12-18T11:01:14;2.80;99.90
33492;DHT22;20010;51.488;7.232;2022-12-18T11:06:27;2.90;99.90
33492;DHT22;20010;51.488;7.232;2022-12-18T11:11:37;3.00;99.90
33492;DHT22;20010;51.488;7.232;2022-12-18T11:14:11;3.00;99.90
33492;DHT22;20010;51.488;7.232;2022-12-18T11:16:49;3.10;99.90
33492;DHT22;20010;51.488;7.232;2022-12-18T11:19:40;3.10;99.90
33492;DHT22;20010;51.488;7.232;2022-12-18T11:22:23;3.10;99.90
33492;DHT22;20010;51.488;7.232;2022-12-18T11:27:53;3.10;99.90
33492;DHT22;20010;51.488;7.232;2022-12-18T11:32:54;3.20;99.90
33492;DHT22;20010;51.488;7.232;2022-12-18T11:40:49;3.30;99.90
33492;DHT22;20010;51.488;7.232;2022-12-18T11:43:31;3.20;99.90
33492;DHT22;20010;51.488;7.232;2022-12-18T11:49:07;3.30;99.90
33492;DHT22;20010;51.488;7.232;2022-12-18T11:51:43;3.30;99.90
33492;DHT22;20010;51.488;7.232;2022-12-18T11:54:15;3.30;99.90
33492;DHT22;20010;51.488;7.232;2022-12-18T11:56:48;3.30;99.90
33492;DHT22;20010;51.488;7.232;2022-12-18T12:02:21;3.30;99.90
33492;DHT22;20010;51.488;7.232;2022-12-18T12:19:03;3.40;99.90
33492;DHT22;20010;51.488;7.232;2022-12-18T12:21:44;3.40;99.90
33492;DHT22;20010;51.488;7.232;2022-12-18T12:40:04;3.40;99.90
33492;DHT22;20010;51.488;7.232;2022-12-18T12:42:55;3.50;99.90
33492;DHT22;20010;51.488;7.232;2022-12-18T12:45:44;3.50;99.90
33492;DHT22;20010;51.488;7.232;2022-12-18T12:48:37;3.50;99.90
33492;DHT22;20010;51.488;7.232;2022-12-18T12:51:26;3.60;99.90
33492;DHT22;20010;51.488;7.232;2022-12-18T12:53:56;3.60;99.90
33492;DHT22;20010;51.488;7.232;2022-12-18T12:56:30;3.60;99.90
33492;DHT22;20010;51.488;7.232;2022-12-18T13:04:49;3.60;99.90
33492;DHT22;20010;51.488;7.232;2022-12-18T13:07:24;3.60;99.90
33492;DHT22;20010;51.488;7.232;2022-12-18T13:15:40;3.50;99.90
33492;DHT22;20010;51.488;7.232;2022-12-18T13:20:49;3.40;99.90
33492;DHT22;20010;51.488;7.232;2022-12-18T13:36:55;3.20;99.90
33492;DHT22;20010;51.488;7.232;2022-12-18T13:39:41;3.20;99.90
33492;DHT22;20010;51.488;7.232;2022-12-18T13:44:39;3.10;99.90
33492;DHT22;20010;51.488;7.232;2022-12-18T13:47:32;3.10;99.90
33492;DHT22;20010;51.488;7.232;2022-12-18T13:50:02;3.00;99.90
33492;DHT22;20010;51.488;7.232;2022-12-18T13:52:37;3.00;99.90
33492;DHT22;20010;51.488;7.232;2022-12-18T13:55:14;2.90;99.90
33492;DHT22;20010;51.488;7.232;2022-12-18T13:57:42;2.90;99.90
33492;DHT22;20010;51.488;7.232;2022-12-18T14:00:29;2.80;99.90
33492;DHT22;20010;51.488;7.232;2022-12-18T14:02:57;2.80;99.90
33492;DHT22;20010;51.488;7.232;2022-12-18T14:05:25;2.80;99.90
33492;DHT22;20010;51.488;7.232;2022-12-18T14:07:52;2.70;99.90
33492;DHT22;20010;51.488;7.232;2022-12-18T14:10:21;2.70;99.90
33492;DHT22;20010;51.488;7.232;2022-12-18T14:13:10;2.60;99.90
33492;DHT22;20010;51.488;7.232;2022-12-18T14:15:46;2.50;99.90
33492;DHT22;20010;51.488;7.232;2022-12-18T14:20:54;2.40;99.90
33492;DHT22;20010;51.488;7.232;2022-12-18T14:25:59;2.30;99.90
33492;DHT22;20010;51.488;7.232;2022-12-18T14:28:31;2.30;99.90
33492;DHT22;20010;51.488;7.232;2022-12-18T14:30:58;2.20;99.90
33492;DHT22;20010;51.488;7.232;2022-12-18T14:33:27;2.20;99.90
33492;DHT22;20010;51.488;7.232;2022-12-18T14:36:05;2.20;99.90
33492;DHT22;20010;51.488;7.232;2022-12-18T14:38:39;2.20;99.90
33492;DHT22;20010;51.488;7.232;2022-12-18T14:43:38;2.10;99.90
33492;DHT22;20010;51.488;7.232;2022-12-18T14:46:38;2.10;99.90
33492;DHT22;20010;51.488;7.232;2022-12-18T14:51:50;2.10;99.90
33492;DHT22;20010;51.488;7.232;2022-12-18T14:54:24;2.10;99.90
33492;DHT22;20010;51.488;7.232;2022-12-18T14:57:14;2.10;99.90
33492;DHT22;20010;51.488;7.232;2022-12-18T14:59:45;2.00;99.90
33492;DHT22;20010;51.488;7.232;2022-12-18T15:02:23;2.00;99.90
33492;DHT22;20010;51.488;7.232;2022-12-18T15:05:02;2.00;99.90
33492;DHT22;20010;51.488;7.232;2022-12-18T15:10:31;2.00;99.90
33492;DHT22;20010;51.488;7.232;2022-12-18T15:20:47;1.90;99.90
33492;DHT22;20010;51.488;7.232;2022-12-18T15:26:11;1.90;99.90
33492;DHT22;20010;51.488;7.232;2022-12-18T15:28:51;1.90;99.90
33492;DHT22;20010;51.488;7.232;2022-12-18T15:36:19;1.80;99.90
33492;DHT22;20010;51.488;7.232;2022-12-18T15:38:54;1.80;99.90
33492;DHT22;20010;51.488;7.232;2022-12-18T15:41:30;1.70;99.90
33492;DHT22;20010;51.488;7.232;2022-12-18T15:43:58;1.70;99.90
33492;DHT22;20010;51.488;7.232;2022-12-18T15:46:25;1.70;99.90
33492;DHT22;20010;51.488;7.232;2022-12-18T15:48:54;1.70;99.90
33492;DHT22;20010;51.488;7.232;2022-12-18T15:51:29;1.70;99.90
33492;DHT22;20010;51.488;7.232;2022-12-18T15:54:00;1.60;99.90
33492;DHT22;20010;51.488;7.232;2022-12-18T15:56:27;1.60;99.90
33492;DHT22;20010;51.488;7.232;2022-12-18T15:59:15;1.60;99.90
33492;DHT22;20010;51.488;7.232;2022-12-18T16:01:45;1.60;99.90
33492;DHT22;20010;51.488;7.232;2022-12-18T16:04:14;1.50;99.90
33492;DHT22;20010;51.488;7.232;2022-12-18T16:06:42;1.50;99.90
33492;DHT22;20010;51.488;7.232;2022-12-18T16:09:29;1.50;99.90
33492;DHT22;20010;51.488;7.232;2022-12-18T16:11:55;1.50;99.90
33492;DHT22;20010;51.488;7.232;2022-12-18T16:14:24;1.50;99.90
33492;DHT22;20010;51.488;7.232;2022-12-18T16:16:55;1.40;99.90
33492;DHT22;20010;51.488;7.232;2022-12-18T16:19:22;1.40;99.90
33492;DHT22;20010;51.488;7.232;2022-12-18T16:21:51;1.40;99.90
33492;DHT22;20010;51.488;7.232;2022-12-18T16:24:24;1.40;99.90
33492;DHT22;20010;51.488;7.232;2022-12-18T16:26:51;1.40;99.90
33492;DHT22;20010;51.488;7.232;2022-12-18T16:29:20;1.40;99.90
33492;DHT22;20010;51.488;7.232;2022-12-18T16:31:51;1.40;99.90
33492;DHT22;20010;51.488;7.232;2022-12-18T16:34:31;1.40;99.90
33492;DHT22;20010;51.488;7.232;2022-12-18T16:37:04;1.40;99.90
33492;DHT22;20010;51.488;7.232;2022-12-18T16:39:36;1.40;99.90
33492;DHT22;20010;51.488;7.232;2022-12-18T16:42:05;1.40;99.90
33492;DHT22;20010;51.488;7.232;2022-12-18T16:44:35;1.30;99.90
33492;DHT22;20010;51.488;7.232;2022-12-18T16:47:03;1.30;99.90
33492;DHT22;20010;51.488;7.232;2022-12-18T16:49:30;1.30;99.90
33492;DHT22;20010;51.488;7.232;2022-12-18T16:51:57;1.30;99.90
33492;DHT22;20010;51.488;7.232;2022-12-18T16:54:24;1.30;99.90
33492;DHT22;20010;51.488;7.232;2022-12-18T16:56:51;1.30;99.90
33492;DHT22;20010;51.488;7.232;2022-12-18T16:59:18;1.20;99.90
33492;DHT22;20010;51.488;7.232;2022-12-18T17:01:45;1.20;99.90
33492;DHT22;20010;51.488;7.232;2022-12-18T17:04:13;1.20;99.90
33492;DHT22;20010;51.488;7.232;2022-12-18T17:06:44;1.20;99.90
33492;DHT22;20010;51.488;7.232;2022-12-18T17:09:13;1.20;99.90
33492;DHT22;20010;51.488;7.232;2022-12-18T17:11:42;1.20;99.90
33492;DHT22;20010;51.488;7.232;2022-12-18T17:14:15;1.20;99.90
33492;DHT22;20010;51.488;7.232;2022-12-18T17:16:42;1.20;99.90
33492;DHT22;20010;51.488;7.232;2022-12-18T17:19:09;1.10;99.90
33492;DHT22;20010;51.488;7.232;2022-12-18T17:21:43;1.10;99.90
33492;DHT22;20010;51.488;7.232;2022-12-18T17:24:11;1.10;99.90
33492;DHT22;20010;51.488;7.232;2022-12-18T17:26:37;1.10;99.90
33492;DHT22;20010;51.488;7.232;2022-12-18T17:29:04;1.10;99.90
33492;DHT22;20010;51.488;7.232;2022-12-18T17:31:32;1.00;99.90
33492;DHT22;20010;51.488;7.232;2022-12-18T17:34:01;1.00;99.90
33492;DHT22;20010;51.488;7.232;2022-12-18T17:36:29;1.00;99.90
33492;DHT22;20010;51.488;7.232;2022-12-18T17:39:00;1.00;99.90
33492;DHT22;20010;51.488;7.232;2022-12-18T17:41:28;1.00;99.90
33492;DHT22;20010;51.488;7.232;2022-12-18T17:43:58;1.00;99.90
33492;DHT22;20010;51.488;7.232;2022-12-18T17:46:27;1.00;99.90
33492;DHT22;20010;51.488;7.232;2022-12-18T17:48:55;1.00;99.90
33492;DHT22;20010;51.488;7.232;2022-12-18T17:51:22;0.90;99.90
33492;DHT22;20010;51.488;7.232;2022-12-18T17:53:49;0.90;99.90
33492;DHT22;20010;51.488;7.232;2022-12-18T17:56:18;0.90;99.90
33492;DHT22;20010;51.488;7.232;2022-12-18T17:58:46;0.90;99.90
33492;DHT22;20010;51.488;7.232;2022-12-18T18:01:15;0.90;99.90
33492;DHT22;20010;51.488;7.232;2022-12-18T18:03:43;0.90;99.90
33492;DHT22;20010;51.488;7.232;2022-12-18T18:06:13;0.90;99.90
33492;DHT22;20010;51.488;7.232;2022-12-18T18:08:41;0.90;99.90
33492;DHT22;20010;51.488;7.232;2022-12-18T18:11:11;0.90;99.90
33492;DHT22;20010;51.488;7.232;2022-12-18T18:13:58;0.90;99.90
33492;DHT22;20010;51.488;7.232;2022-12-18T18:16:36;0.90;99.90
33492;DHT22;20010;51.488;7.232;2022-12-18T18:19:07;0.90;99.90
33492;DHT22;20010;51.488;7.232;2022-12-18T18:21:38;0.90;99.90
33492;DHT22;20010;51.488;7.232;2022-12-18T18:24:07;0.90;99.90
33492;DHT22;20010;51.488;7.232;2022-12-18T18:26:35;0.80;99.90
33492;DHT22;20010;51.488;7.232;2022-12-18T18:29:04;0.80;99.90
33492;DHT22;20010;51.488;7.232;2022-12-18T18:31:32;0.80;99.90
33492;DHT22;20010;51.488;7.232;2022-12-18T18:34:07;0.70;99.90
33492;DHT22;20010;51.488;7.232;2022-12-18T18:36:34;0.70;99.90
33492;DHT22;20010;51.488;7.232;2022-12-18T18:39:01;0.70;99.90
33492;DHT22;20010;51.488;7.232;2022-12-18T18:41:28;0.70;99.90